TimeEST,TemperatureF,Dew PointF,Humidity,Sea Level PressureIn,VisibilityMPH,Wind Direction,Wind SpeedMPH,Gust SpeedMPH,PrecipitationIn,Events,Conditions,WindDirDegrees,DateUTC
12:30 AM,42.8,39.2,87,30.39,2.0,Calm,Calm,-,N/A,,Clear,0,2013-01-09 05:30:00
12:39 AM,42.8,41.0,93,30.39,5.0,Calm,Calm,-,N/A,,Clear,0,2013-01-09 05:39:00
12:56 AM,42.1,37.9,85,30.40,8.0,Calm,Calm,-,N/A,,Clear,0,2013-01-09 05:56:00
1:56 AM,42.1,37.9,85,30.38,3.0,Calm,Calm,-,N/A,,Clear,0,2013-01-09 06:56:00
1:59 AM,42.8,37.4,81,30.37,1.8,Calm,Calm,-,N/A,,Clear,0,2013-01-09 06:59:00
2:10 AM,41.0,37.4,87,30.37,3.0,Calm,Calm,-,N/A,,Clear,0,2013-01-09 07:10:00
2:30 AM,39.2,37.4,93,30.37,4.0,Calm,Calm,-,N/A,,Scattered Clouds,0,2013-01-09 07:30:00
2:56 AM,41.0,37.9,89,30.38,4.0,Calm,Calm,-,N/A,,Partly Cloudy,0,2013-01-09 07:56:00
3:56 AM,42.1,37.9,85,30.39,8.0,Calm,Calm,-,N/A,,Clear,0,2013-01-09 08:56:00
4:56 AM,43.0,39.9,89,30.39,7.0,NNW,4.6,-,N/A,,Mostly Cloudy,330,2013-01-09 09:56:00
5:56 AM,46.9,43.0,86,30.39,8.0,Calm,Calm,-,N/A,,Mostly Cloudy,0,2013-01-09 10:56:00
6:56 AM,46.9,44.1,90,30.41,10.0,Calm,Calm,-,N/A,,Mostly Cloudy,0,2013-01-09 11:56:00
7:56 AM,50.0,45.0,83,30.43,10.0,Calm,Calm,-,N/A,,Mostly Cloudy,0,2013-01-09 12:56:00
8:56 AM,51.1,46.0,83,30.44,8.0,Calm,Calm,-,N/A,,Mostly Cloudy,0,2013-01-09 13:56:00
9:56 AM,55.0,48.0,77,30.44,9.0,Calm,Calm,-,N/A,,Mostly Cloudy,0,2013-01-09 14:56:00
10:56 AM,62.1,50.0,65,30.42,10.0,Calm,Calm,-,N/A,,Mostly Cloudy,0,2013-01-09 15:56:00
11:56 AM,68.0,52.0,56,30.40,10.0,East,4.6,-,N/A,,Mostly Cloudy,80,2013-01-09 16:56:00
12:56 PM,72.0,53.1,51,30.38,10.0,Calm,Calm,-,N/A,,Mostly Cloudy,0,2013-01-09 17:56:00
1:56 PM,73.0,54.0,51,30.37,10.0,NNE,4.6,-,N/A,,Mostly Cloudy,30,2013-01-09 18:56:00
2:56 PM,72.0,54.0,53,30.37,10.0,NNW,5.8,-,N/A,,Mostly Cloudy,340,2013-01-09 19:56:00
3:56 PM,71.1,55.0,57,30.38,10.0,Calm,Calm,-,N/A,,Mostly Cloudy,0,2013-01-09 20:56:00
4:56 PM,68.0,54.0,61,30.39,10.0,Calm,Calm,-,N/A,,Overcast,0,2013-01-09 21:56:00
5:56 PM,64.0,55.0,73,30.40,10.0,South,4.6,-,N/A,,Mostly Cloudy,170,2013-01-09 22:56:00
6:56 PM,62.1,54.0,75,30.40,10.0,Calm,Calm,-,N/A,,Mostly Cloudy,0,2013-01-09 23:56:00
7:56 PM,60.1,55.0,83,30.41,10.0,Calm,Calm,-,0.00,,Mostly Cloudy,0,2013-01-10 00:56:00
8:56 PM,57.0,53.1,87,30.38,10.0,South,3.5,-,N/A,,Scattered Clouds,190,2013-01-10 01:56:00
9:56 PM,57.9,53.1,84,30.40,10.0,WSW,3.5,-,N/A,,Clear,240,2013-01-10 02:56:00
10:56 PM,55.9,52.0,87,30.41,9.0,Calm,Calm,-,N/A,,Scattered Clouds,0,2013-01-10 03:56:00
11:56 PM,55.0,51.1,86,30.42,7.0,Calm,Calm,-,N/A,,Clear,0,2013-01-10 04:56:00